Time;durP1;ratioP1;P1;durP2;ratioP2;P2;SDS_P1;SDS_P2;PMS_P1;PMS_P2;Temp;Humidity;BMP_temperature;BMP_pressure;BME280_temperature;BME280_humidity;BME280_pressure;Samples;Min_cycle;Max_cycle;Signal;HPM_P1;HPM_P2
2023/07/04 00:02:03;;;;;;;19.87;16.77;;;;;;;20.23;79.68;100477.24;1801813;79;21823;-54
2023/07/04 00:05:10;;;;;;;22.17;17.27;;;;;;;20.22;79.76;100479.70;1801903;79;21406;-54
2023/07/04 00:08:15;;;;;;;22.80;16.00;;;;;;;20.23;79.90;100485.02;1801662;79;21339;-54
2023/07/04 00:11:21;;;;;;;23.57;16.45;;;;;;;20.24;80.05;100490.05;1801478;79;21335;-54
2023/07/04 00:14:27;;;;;;;22.30;16.37;;;;;;;20.26;80.16;100492.92;1802040;79;21402;-54
2023/07/04 00:17:33;;;;;;;21.55;15.90;;;;;;;20.25;80.25;100491.20;1801932;78;21372;-54
2023/07/04 00:20:40;;;;;;;17.15;15.35;;;;;;;20.25;80.35;100493.12;1802287;79;21332;-54
2023/07/04 00:23:46;;;;;;;21.55;15.38;;;;;;;20.24;80.41;100495.08;1802348;79;21415;-54
2023/07/04 00:26:56;;;;;;;17.57;13.85;;;;;;;20.21;80.38;100494.70;1802155;79;21983;-54
2023/07/04 00:30:05;;;;;;;18.05;15.98;;;;;;;20.19;80.33;100501.02;1802820;79;21884;-54
2023/07/04 00:33:13;;;;;;;17.90;14.03;;;;;;;20.15;80.39;100509.55;1802339;79;21336;-55
2023/07/04 00:36:21;;;;;;;14.60;13.00;;;;;;;20.12;80.47;100514.16;1802238;79;21355;-54
2023/07/04 00:39:27;;;;;;;20.62;13.38;;;;;;;20.08;80.59;100512.38;1802145;79;21316;-55
2023/07/04 00:42:36;;;;;;;16.65;13.28;;;;;;;20.08;80.68;100517.08;1802167;79;21407;-54
2023/07/04 00:45:44;;;;;;;16.48;13.53;;;;;;;20.07;80.67;100520.95;1795124;79;21362;-54
2023/07/04 00:48:51;;;;;;;15.13;13.58;;;;;;;20.04;80.61;100518.64;1802108;79;21335;-54
2023/07/04 00:52:12;;;;;;;16.17;13.48;;;;;;;20.02;80.69;100520.27;1802350;79;21797;-54
2023/07/04 00:55:19;;;;;;;19.73;13.08;;;;;;;20.00;80.75;100521.03;1802261;79;21431;-54
2023/07/04 00:58:25;;;;;;;18.10;12.88;;;;;;;20.02;80.85;100531.39;1802336;79;21822;-54
2023/07/04 01:01:34;;;;;;;15.05;12.63;;;;;;;20.03;80.94;100530.82;1802281;79;21347;-54
2023/07/04 01:04:39;;;;;;;19.77;14.07;;;;;;;20.05;81.03;100535.61;1802211;79;21359;-54
2023/07/04 01:08:01;;;;;;;16.62;14.18;;;;;;;20.05;81.07;100539.78;1802044;79;21342;-54
2023/07/04 01:11:13;;;;;;;15.28;13.68;;;;;;;20.04;81.05;100537.53;1802157;79;21438;-54
2023/07/04 01:14:31;;;;;;;17.98;14.85;;;;;;;20.04;81.10;100541.70;1802106;79;21841;-54
2023/07/04 01:17:41;;;;;;;14.28;12.88;;;;;;;20.04;81.18;100544.48;1802119;79;21880;-54
2023/07/04 01:20:46;;;;;;;15.30;13.70;;;;;;;20.04;81.22;100540.88;1802101;79;21347;-53
2023/07/04 01:24:07;;;;;;;16.52;14.58;;;;;;;20.03;81.27;100544.72;1802044;79;21360;-53
2023/07/04 01:27:14;;;;;;;21.15;15.28;;;;;;;20.03;81.30;100543.33;1797230;79;21790;-53
2023/07/04 01:30:20;;;;;;;20.97;15.75;;;;;;;19.98;81.30;100538.47;1802485;79;21347;-54
2023/07/04 01:33:26;;;;;;;18.32;16.30;;;;;;;19.94;81.31;100535.87;1802260;79;21331;-54
2023/07/04 01:36:35;;;;;;;19.60;15.43;;;;;;;19.92;81.37;100538.55;1802069;79;21852;-54
2023/07/04 01:39:41;;;;;;;17.12;14.95;;;;;;;19.89;81.47;100553.77;1802209;78;21375;-53
2023/07/04 01:42:49;;;;;;;15.93;14.23;;;;;;;19.90;81.62;100561.58;1802136;79;21348;-54
2023/07/04 01:45:56;;;;;;;17.20;14.53;;;;;;;19.88;81.73;100558.17;1802658;79;21833;-54
2023/07/04 01:49:02;;;;;;;18.35;14.83;;;;;;;19.88;81.80;100562.34;1802713;79;21860;-54
2023/07/04 01:52:08;;;;;;;25.45;15.13;;;;;;;19.85;81.84;100555.86;1802765;79;21840;-53
2023/07/04 01:55:15;;;;;;;18.57;15.10;;;;;;;19.83;81.85;100558.02;1802226;79;21744;-54
2023/07/04 01:58:21;;;;;;;16.87;15.00;;;;;;;19.82;81.90;100561.89;1802227;79;21351;-53
2023/07/04 02:01:27;;;;;;;18.42;15.63;;;;;;;19.80;81.97;100559.88;1802309;79;21336;-53
2023/07/04 02:04:35;;;;;;;15.48;13.80;;;;;;;19.81;82.14;100562.95;1802186;79;21351;-53
2023/07/04 02:07:41;;;;;;;19.07;15.18;;;;;;;19.79;82.18;100563.74;1802089;79;21367;-54
2023/07/04 02:10:47;;;;;;;19.50;14.53;;;;;;;19.78;82.22;100560.11;1802009;78;21458;-53
2023/07/04 02:13:54;;;;;;;17.37;15.38;;;;;;;19.79;82.29;100556.80;1800245;79;21331;-54
2023/07/04 02:17:00;;;;;;;20.45;15.88;;;;;;;19.79;82.38;100556.80;1802088;79;21352;-54
2023/07/04 02:20:08;;;;;;;19.07;14.70;;;;;;;19.81;82.48;100563.80;1802085;79;21343;-54
2023/07/04 02:23:15;;;;;;;19.42;14.47;;;;;;;19.86;82.63;100567.27;1801959;79;21963;-54
2023/07/04 02:26:22;;;;;;;19.48;15.63;;;;;;;19.90;82.67;100572.70;1802030;79;21849;-53
2023/07/04 02:29:28;;;;;;;19.85;16.07;;;;;;;19.92;82.68;100564.95;1801900;79;21343;-54
2023/07/04 02:32:35;;;;;;;18.70;15.38;;;;;;;19.94;82.66;100561.41;1802084;78;21751;-54
2023/07/04 02:35:41;;;;;;;17.62;15.80;;;;;;;19.98;82.77;100569.61;1801983;79;21343;-54
2023/07/04 02:38:47;;;;;;;21.15;17.35;;;;;;;20.05;82.90;100570.36;1801805;79;21343;-54
2023/07/04 02:41:54;;;;;;;24.18;16.35;;;;;;;20.13;83.00;100576.99;1801937;79;21336;-54
2023/07/04 02:45:02;;;;;;;18.05;15.20;;;;;;;20.21;83.08;100576.71;1802033;79;21390;-55
2023/07/04 02:48:08;;;;;;;20.00;14.83;;;;;;;20.30;83.18;100569.73;1802507;79;21348;-53
2023/07/04 02:51:15;;;;;;;16.57;14.25;;;;;;;20.40;83.28;100576.45;1802372;78;21899;-54
2023/07/04 02:54:22;;;;;;;17.35;13.05;;;;;;;20.50;83.34;100582.85;1802153;79;21336;-54
2023/07/04 02:57:28;;;;;;;15.00;13.43;;;;;;;20.59;83.33;100584.21;1802460;79;21347;-54
2023/07/04 03:00:35;;;;;;;16.60;14.85;;;;;;;20.64;83.35;100581.58;1803252;79;21343;-53
2023/07/04 03:03:42;;;;;;;17.32;15.60;;;;;;;20.67;83.36;100587.52;1803267;79;21500;-54
2023/07/04 03:06:49;;;;;;;19.05;16.45;;;;;;;20.72;83.36;100588.20;1801851;79;21444;-54
2023/07/04 03:09:55;;;;;;;18.42;16.42;;;;;;;20.77;83.41;100586.95;1802219;79;21347;-53
2023/07/04 03:13:03;;;;;;;19.15;17.15;;;;;;;20.79;83.43;100584.75;1802157;79;21344;-54
2023/07/04 03:16:09;;;;;;;20.30;17.85;;;;;;;20.82;83.37;100574.53;1767021;81;21196;-51
2023/07/04 03:19:15;;;;;;;21.27;17.82;;;;;;;20.84;83.21;100575.16;1767014;81;21246;-52
2023/07/04 03:22:21;;;;;;;22.82;17.80;;;;;;;20.87;83.28;100584.41;1767137;81;21720;-53
2023/07/04 03:25:29;;;;;;;18.77;16.87;;;;;;;20.92;83.44;100583.16;1766955;81;21204;-52
2023/07/04 03:28:36;;;;;;;19.35;17.35;;;;;;;20.98;83.59;100581.41;1766982;81;21188;-50
2023/07/04 03:31:41;;;;;;;20.62;18.37;;;;;;;21.05;83.74;100594.13;1767028;81;21364;-51
2023/07/04 03:34:46;;;;;;;22.85;17.70;;;;;;;21.08;83.81;100593.65;1767009;81;21195;-50
2023/07/04 03:37:56;;;;;;;19.85;17.85;;;;;;;21.11;83.80;100595.95;1767070;81;21751;-50
2023/07/04 03:41:02;;;;;;;19.05;17.05;;;;;;;21.14;83.81;100596.86;1767006;81;21724;-49
2023/07/04 03:44:09;;;;;;;19.37;17.32;;;;;;;21.18;83.86;100593.92;1767001;81;21196;-49
2023/07/04 03:47:15;;;;;;;19.90;17.80;;;;;;;21.22;83.87;100590.09;1767916;81;21200;-50
2023/07/04 03:50:21;;;;;;;18.52;15.85;;;;;;;21.25;83.85;100582.67;1767906;81;21203;-50
2023/07/04 03:53:28;;;;;;;18.73;16.73;;;;;;;21.31;83.94;100588.67;1767319;81;21223;-50
2023/07/04 03:56:33;;;;;;;18.27;16.35;;;;;;;21.39;84.06;100594.71;1767199;81;21183;-50
2023/07/04 03:59:39;;;;;;;18.15;16.05;;;;;;;21.47;84.11;100587.95;1768139;81;21204;-50
2023/07/04 04:02:46;;;;;;;20.48;16.52;;;;;;;21.56;84.11;100587.36;1767156;81;21191;-50
2023/07/04 04:05:52;;;;;;;21.05;17.05;;;;;;;21.67;84.17;100594.01;1760993;81;21164;-50
2023/07/04 04:08:58;;;;;;;18.85;16.85;;;;;;;21.77;84.16;100590.11;1716686;83;21469;-50
2023/07/04 04:12:04;;;;;;;22.75;17.42;;;;;;;21.85;83.99;100596.70;1736745;82;21701;-50
2023/07/04 04:15:11;;;;;;;20.60;16.93;;;;;;;21.91;83.79;100595.16;1760251;78;21173;-50
2023/07/04 04:18:20;;;;;;;19.70;17.57;;;;;;;22.00;83.70;100599.82;1787045;79;21412;-50
2023/07/04 04:21:26;;;;;;;19.00;17.10;;;;;;;22.09;83.70;100595.02;1787893;79;21371;-50
2023/07/04 04:24:36;;;;;;;19.52;17.40;;;;;;;22.21;83.80;100604.19;1784860;79;21329;-50
2023/07/04 04:27:40;;;;;;;20.02;17.92;;;;;;;22.29;83.72;100602.13;1786474;79;21348;-52
2023/07/04 04:30:49;;;;;;;20.32;18.23;;;;;;;22.32;83.66;100602.48;1787833;78;21679;-50
2023/07/04 04:33:56;;;;;;;20.08;17.70;;;;;;;22.38;83.59;100606.22;1796886;79;21393;-50
2023/07/04 04:37:04;;;;;;;21.07;18.65;;;;;;;22.41;83.46;100601.53;1798893;79;21705;-50
2023/07/04 04:40:13;;;;;;;22.35;19.25;;;;;;;22.41;83.36;100607.11;1798500;79;21189;-51
2023/07/04 04:43:18;;;;;;;25.37;18.95;;;;;;;22.40;83.31;100609.08;1786119;79;21339;-50
2023/07/04 04:46:26;;;;;;;27.25;20.30;;;;;;;22.40;83.38;100609.61;1801261;79;21347;-50
2023/07/04 04:49:32;;;;;;;25.95;23.15;;;;;;;22.41;83.51;100611.30;1777611;79;21173;-51
2023/07/04 04:52:41;;;;;;;24.80;22.25;;;;;;;22.42;83.50;100612.44;1769807;79;21212;-51
2023/07/04 04:55:45;;;;;;;27.30;23.20;;;;;;;22.39;83.34;100609.33;1769393;79;21746;-51
2023/07/04 04:58:51;;;;;;;27.42;24.65;;;;;;;22.36;83.27;100621.81;1769706;79;21205;-49
2023/07/04 05:01:56;;;;;;;29.55;25.85;;;;;;;22.37;83.31;100622.12;1798132;79;21332;-49
2023/07/04 05:05:03;;;;;;;29.15;25.60;;;;;;;22.37;83.36;100622.12;1801643;79;21351;-51
2023/07/04 05:08:08;;;;;;;31.68;26.07;;;;;;;22.42;83.51;100622.78;1797184;78;21922;-48
2023/07/04 05:11:15;;;;;;;28.77;25.30;;;;;;;22.48;83.64;100623.17;1787925;79;21192;-51
2023/07/04 05:14:22;;;;;;;28.85;24.70;;;;;;;22.56;83.77;100620.03;1781115;79;21185;-51
2023/07/04 05:17:29;;;;;;;26.68;23.27;;;;;;;22.62;83.95;100619.89;1784214;78;21417;-49
2023/07/04 05:20:34;;;;;;;32.95;26.23;;;;;;;22.71;84.02;100623.97;1783292;79;21280;-51
2023/07/04 05:23:48;;;;;;;32.75;27.13;;;;;;;22.77;84.16;100627.16;1779658;79;21372;-54
2023/07/04 05:26:53;;;;;;;26.02;21.52;;;;;;;22.87;84.25;100631.55;1781229;78;21999;-50
2023/07/04 05:29:59;;;;;;;20.75;18.40;;;;;;;22.97;84.39;100634.55;1780184;79;21183;-50
2023/07/04 05:33:05;;;;;;;19.45;17.37;;;;;;;23.07;84.38;100631.09;1785168;79;21351;-52
2023/07/04 05:36:32;;;;;;;17.87;14.70;;;;;;;23.15;84.38;100630.69;1785149;79;21173;-51
2023/07/04 05:39:39;;;;;;;18.27;14.40;;;;;;;23.23;84.33;100628.88;1789390;78;21468;-53
2023/07/04 05:42:44;;;;;;;20.92;16.17;;;;;;;23.35;84.39;100642.25;1781473;79;21208;-51
2023/07/04 05:45:58;;;;;;;19.27;16.30;;;;;;;23.43;84.40;100638.50;1784594;79;21606;-49
2023/07/04 05:49:07;;;;;;;17.95;14.47;;;;;;;23.50;84.38;100641.09;1785006;79;21308;-52
2023/07/04 05:52:14;;;;;;;16.45;13.83;;;;;;;23.59;84.41;100640.99;1780106;79;21178;-48
2023/07/04 05:55:20;;;;;;;16.02;14.00;;;;;;;23.68;84.45;100636.66;1778414;79;21204;-48
2023/07/04 05:58:29;;;;;;;13.95;11.57;;;;;;;23.75;84.32;100632.30;1772126;78;21193;-50
2023/07/04 06:01:50;;;;;;;11.93;10.70;;;;;;;23.80;84.25;100637.97;1784502;79;21546;-47
2023/07/04 06:04:57;;;;;;;13.62;11.57;;;;;;;23.86;84.20;100641.98;1790013;79;21706;-48
2023/07/04 06:08:04;;;;;;;13.18;11.78;;;;;;;23.94;84.21;100644.36;1769417;79;21228;-46
2023/07/04 06:11:12;;;;;;;13.93;12.33;;;;;;;24.03;84.19;100647.57;1794021;78;21336;-49
2023/07/04 06:14:22;;;;;;;13.80;12.13;;;;;;;24.07;84.03;100640.37;1791584;79;21538;-47
2023/07/04 06:17:29;;;;;;;15.85;13.38;;;;;;;24.12;84.07;100645.48;1800298;79;21391;-47
2023/07/04 06:20:36;;;;;;;17.07;12.95;;;;;;;24.19;84.20;100646.69;1803031;79;21398;-48
2023/07/04 06:23:45;;;;;;;15.65;13.98;;;;;;;24.26;84.11;100643.17;1801674;79;21900;-49
2023/07/04 06:26:53;;;;;;;15.43;13.40;;;;;;;24.32;84.13;100648.58;1800030;79;21912;-47
2023/07/04 06:30:04;;;;;;;17.27;14.65;;;;;;;24.39;84.09;100646.95;1798747;79;21200;-48
2023/07/04 06:33:11;;;;;;;14.28;12.47;;;;;;;24.46;84.04;100646.23;1790967;78;21328;-47
2023/07/04 06:36:18;;;;;;;12.70;11.40;;;;;;;24.52;84.00;100655.84;1800424;79;21339;-47
2023/07/04 06:39:23;;;;;;;13.45;11.83;;;;;;;24.56;83.92;100647.19;1800676;79;21339;-47
2023/07/04 06:42:30;;;;;;;13.48;12.18;;;;;;;24.63;83.86;100649.26;1797351;79;21793;-47
2023/07/04 06:45:39;;;;;;;12.60;11.30;;;;;;;24.72;83.83;100650.52;1801563;79;21888;-49
2023/07/04 06:48:44;;;;;;;10.43;9.33;;;;;;;24.78;83.89;100643.03;1772146;79;21320;-47
2023/07/04 06:51:50;;;;;;;13.43;10.65;;;;;;;24.85;83.89;100650.12;1776223;79;21207;-47
2023/07/04 06:54:58;;;;;;;11.40;9.55;;;;;;;24.91;83.77;100647.66;1792363;79;21335;-49
2023/07/04 06:58:05;;;;;;;12.82;10.38;;;;;;;24.98;83.76;100651.66;1789845;79;21386;-48
2023/07/04 07:01:11;;;;;;;11.03;9.90;;;;;;;25.02;83.65;100651.44;1778675;79;21185;-49
2023/07/04 07:04:18;;;;;;;10.78;9.70;;;;;;;25.05;83.50;100641.92;1781502;79;21967;-47
2023/07/04 07:07:25;;;;;;;11.97;9.38;;;;;;;25.12;83.36;100643.69;1779056;79;21188;-49
2023/07/04 07:10:31;;;;;;;10.78;9.68;;;;;;;25.16;83.29;100646.24;1787317;79;21181;-47
2023/07/04 07:13:36;;;;;;;10.18;8.53;;;;;;;25.19;83.14;100649.91;1777117;79;21177;-48
2023/07/04 07:16:44;;;;;;;14.50;8.58;;;;;;;25.28;83.07;100648.31;1780737;79;21702;-48
2023/07/04 07:19:51;;;;;;;11.50;8.00;;;;;;;25.34;82.93;100654.31;1764025;79;21208;-50
2023/07/04 07:22:58;;;;;;;8.15;7.30;;;;;;;25.40;82.81;100651.84;1798498;79;21189;-50
2023/07/04 07:26:04;;;;;;;7.87;7.08;;;;;;;25.47;82.73;100646.84;1797039;79;21759;-48
2023/07/04 07:29:09;;;;;;;11.00;6.08;;;;;;;25.55;82.47;100642.15;1775988;79;21745;-48
2023/07/04 07:32:17;;;;;;;14.20;7.45;;;;;;;25.61;82.31;100646.13;1775917;79;21239;-51
2023/07/04 07:35:25;;;;;;;16.00;14.33;;;;;;;25.69;82.17;100650.42;1779065;79;21207;-51
2023/07/04 07:38:35;;;;;;;12.20;10.38;;;;;;;25.75;81.88;100642.34;1775166;79;21742;-51
2023/07/04 07:41:43;;;;;;;7.72;6.12;;;;;;;25.79;81.54;100644.88;1792297;78;21730;-50
2023/07/04 07:44:51;;;;;;;7.40;5.35;;;;;;;25.83;81.36;100646.05;1778162;79;21715;-51
2023/07/04 07:47:57;;;;;;;5.67;4.83;;;;;;;25.86;80.94;100645.50;1708827;82;21637;-51
2023/07/04 07:51:03;;;;;;;7.50;5.67;;;;;;;25.90;80.82;100646.64;1723863;82;21176;-51
2023/07/04 07:54:10;;;;;;;8.05;5.55;;;;;;;25.96;80.77;100640.80;1727583;82;21246;-52
2023/07/04 07:57:17;;;;;;;6.35;5.67;;;;;;;26.06;80.70;100644.27;1707267;81;21256;-52
2023/07/04 08:00:23;;;;;;;6.72;5.65;;;;;;;26.14;80.54;100645.16;1731130;81;21192;-52
2023/07/04 08:03:29;;;;;;;6.95;5.55;;;;;;;26.20;80.32;100649.67;1731540;82;21166;-50
2023/07/04 08:06:38;;;;;;;6.10;5.20;;;;;;;26.27;80.06;100651.70;1747354;81;21740;-54
2023/07/04 08:09:45;;;;;;;6.15;4.75;;;;;;;26.33;79.86;100650.05;1725961;82;21249;-54
2023/07/04 08:12:51;;;;;;;6.60;5.42;;;;;;;26.41;79.72;100652.89;1706564;82;21267;-55
2023/07/04 08:16:02;;;;;;;7.10;4.95;;;;;;;26.48;79.50;100647.89;1741013;82;21268;-54
2023/07/04 08:19:08;;;;;;;6.97;4.50;;;;;;;26.55;79.11;100657.44;1724693;81;21333;-54
2023/07/04 08:22:14;;;;;;;5.85;4.72;;;;;;;26.60;78.88;100654.11;1788276;78;21517;-53
2023/07/04 08:25:19;;;;;;;6.83;5.37;;;;;;;26.68;78.66;100655.57;1777575;79;21765;-53
2023/07/04 08:28:26;;;;;;;6.30;5.15;;;;;;;26.76;78.52;100655.90;1766966;79;21554;-53
2023/07/04 08:31:33;;;;;;;7.35;5.50;;;;;;;26.84;78.43;100654.52;1782697;80;21215;-53
2023/07/04 08:34:39;;;;;;;7.60;5.75;;;;;;;26.93;78.23;100654.25;1773490;79;21211;-53
2023/07/04 08:37:45;;;;;;;8.33;5.00;;;;;;;27.01;77.91;100650.91;1769541;80;21526;-51
2023/07/04 08:40:55;;;;;;;5.92;5.10;;;;;;;27.08;77.71;100650.09;1771082;79;21788;-53
2023/07/04 08:44:09;;;;;;;7.28;5.62;;;;;;;27.13;77.43;100648.13;1780405;79;21243;-53
2023/07/04 08:47:17;;;;;;;6.00;4.92;;;;;;;27.15;77.06;100645.03;1781962;79;21528;-53
2023/07/04 08:50:31;;;;;;;6.58;5.28;;;;;;;27.21;76.91;100651.80;1782255;79;22080;-53
2023/07/04 08:53:39;;;;;;;6.55;5.62;;;;;;;27.29;76.78;100655.50;1777818;79;21176;-53
2023/07/04 08:56:46;;;;;;;6.22;5.25;;;;;;;27.39;76.64;100643.41;1788338;79;21227;-52
2023/07/04 08:59:54;;;;;;;8.83;5.20;;;;;;;27.44;76.22;100645.69;1776707;80;21211;-52
2023/07/04 09:03:37;;;;;;;6.08;4.70;;;;;;;27.40;75.69;100654.97;1795035;78;21533;-48
2023/07/04 09:06:50;;;;;;;8.38;5.45;;;;;;;27.42;75.51;100647.92;1787990;79;21741;-49
2023/07/04 09:10:15;;;;;;;7.42;5.03;;;;;;;27.49;75.35;100649.91;1797843;79;21180;-51
2023/07/04 09:13:34;;;;;;;6.97;5.72;;;;;;;27.54;74.93;100652.70;1784366;79;21271;-51
2023/07/04 09:16:48;;;;;;;5.78;4.97;;;;;;;27.57;74.62;100645.69;1778212;79;21236;-54
2023/07/04 09:19:54;;;;;;;5.67;5.08;;;;;;;27.66;74.49;100648.21;1786602;80;21353;-55
2023/07/04 09:23:00;;;;;;;7.12;5.62;;;;;;;27.73;74.24;100642.58;1770509;80;21252;-51
2023/07/04 09:26:07;;;;;;;7.53;5.37;;;;;;;27.83;74.05;100650.17;1777977;79;21682;-51
2023/07/04 09:29:13;;;;;;;6.20;5.03;;;;;;;27.91;73.71;100648.81;1720272;82;21216;-51
2023/07/04 09:32:21;;;;;;;7.47;5.17;;;;;;;27.96;73.26;100641.19;1776952;79;21216;-55
2023/07/04 09:35:27;;;;;;;7.05;5.05;;;;;;;28.04;72.93;100641.16;1775880;79;21583;-55
2023/07/04 09:38:34;;;;;;;6.20;4.92;;;;;;;28.15;72.72;100640.02;1776538;79;21335;-56
2023/07/04 09:41:41;;;;;;;6.45;5.20;;;;;;;28.28;72.55;100640.84;1761933;80;21887;-55
2023/07/04 09:44:49;;;;;;;8.15;5.20;;;;;;;28.43;72.40;100642.22;1770446;80;21238;-56
2023/07/04 09:47:55;;;;;;;6.28;5.03;;;;;;;28.54;72.09;100644.72;1772151;80;21244;-55
2023/07/04 09:51:02;;;;;;;9.60;5.25;;;;;;;28.51;71.45;100640.25;1770654;79;21335;-55
2023/07/04 09:54:23;;;;;;;9.18;8.28;;;;;;;28.46;71.06;100643.05;1779175;79;21717;-53
2023/07/04 09:57:32;;;;;;;6.65;5.55;;;;;;;28.31;70.60;100642.52;1780283;79;21240;-55
2023/07/04 10:00:38;;;;;;;6.62;5.20;;;;;;;28.16;70.21;100643.98;1774999;79;21293;-53
2023/07/04 10:03:46;;;;;;;6.95;4.85;;;;;;;28.17;70.17;100651.30;1800873;78;21213;-53
2023/07/04 10:06:52;;;;;;;6.87;5.35;;;;;;;28.29;70.13;100646.77;1801361;79;21426;-54
2023/07/04 10:10:14;;;;;;;7.10;5.03;;;;;;;28.42;69.92;100646.14;1800292;78;21417;-54
2023/07/04 10:13:20;;;;;;;8.15;5.08;;;;;;;28.53;69.64;100639.38;1771265;79;21264;-55
2023/07/04 10:16:28;;;;;;;8.03;5.55;;;;;;;28.67;69.34;100634.83;1770532;80;21232;-58
2023/07/04 10:19:35;;;;;;;6.10;5.45;;;;;;;28.86;69.08;100644.33;1764715;79;21197;-54
2023/07/04 10:22:46;;;;;;;6.22;5.20;;;;;;;28.98;68.74;100642.84;1775348;79;21212;-55
2023/07/04 10:25:52;;;;;;;5.90;5.20;;;;;;;29.10;68.44;100641.09;1769559;79;21196;-58
2023/07/04 10:28:57;;;;;;;7.65;5.37;;;;;;;29.24;68.28;100640.16;1771633;79;21208;-56
2023/07/04 10:32:02;;;;;;;7.60;5.55;;;;;;;29.37;67.90;100626.55;1796044;78;21398;-54
2023/07/04 10:35:08;;;;;;;5.92;5.30;;;;;;;29.51;67.48;100640.27;1774496;79;21363;-54
2023/07/04 10:38:54;;;;;;;6.33;5.55;;;;;;;29.57;66.99;100634.29;1782038;79;21698;-50
2023/07/04 10:42:07;;;;;;;5.90;5.20;;;;;;;29.59;66.43;100636.81;1785162;79;21331;-53
2023/07/04 10:45:14;;;;;;;7.20;5.12;;;;;;;29.66;66.12;100641.01;1773378;79;21746;-54
2023/07/04 10:48:21;;;;;;;8.85;5.40;;;;;;;29.94;65.44;100638.77;1784855;79;21686;-53
2023/07/04 10:51:31;;;;;;;6.15;4.95;;;;;;;30.09;65.29;100635.80;1780226;78;21192;-53
2023/07/04 10:54:39;;;;;;;6.00;5.40;;;;;;;30.09;65.29;100635.80;1776411;79;21244;-54
2023/07/04 10:57:56;;;;;;;6.05;5.37;;;;;;;30.25;64.92;100633.69;1792424;78;21387;-55
2023/07/04 11:01:12;;;;;;;8.68;5.10;;;;;;;30.39;64.34;100632.67;1786843;79;21233;-54
2023/07/04 11:04:32;;;;;;;6.45;5.22;;;;;;;30.45;63.83;100634.85;1770324;79;21328;-54
2023/07/04 11:07:43;;;;;;;8.03;6.10;;;;;;;30.39;63.16;100634.09;1732233;82;21216;-60
2023/07/04 11:10:51;;;;;;;6.22;4.87;;;;;;;30.31;62.82;100630.51;1723212;82;21276;-58
2023/07/04 11:14:02;;;;;;;7.62;5.55;;;;;;;30.44;62.70;100630.35;1729360;82;21628;-57
2023/07/04 11:17:10;;;;;;;9.33;5.62;;;;;;;30.61;62.53;100625.05;1717967;83;21213;-55
2023/07/04 11:20:24;;;;;;;7.22;5.37;;;;;;;30.76;62.11;100625.42;1722292;82;21212;-59
2023/07/04 11:23:30;;;;;;;5.83;5.10;;;;;;;30.88;61.70;100631.50;1723342;81;21551;-56
2023/07/04 11:26:56;;;;;;;9.00;5.35;;;;;;;31.02;61.22;100623.38;1750734;81;21199;-57
2023/07/04 11:30:07;;;;;;;7.90;5.80;;;;;;;31.12;60.88;100628.05;1757312;81;21344;-55
2023/07/04 11:33:12;;;;;;;6.12;5.10;;;;;;;31.24;60.70;100622.20;1794443;79;21178;-60
2023/07/04 11:36:42;;;;;;;7.60;5.78;;;;;;;31.32;60.35;100620.69;1756758;79;21197;-56
2023/07/04 11:39:47;;;;;;;6.30;5.65;;;;;;;31.34;60.03;100619.82;1780819;79;21363;-59
2023/07/04 11:42:58;;;;;;;6.80;5.95;;;;;;;31.28;59.64;100622.44;1773195;79;21379;-56
2023/07/04 11:46:05;;;;;;;6.55;5.42;;;;;;;31.22;59.17;100620.27;1787150;79;21860;-56
2023/07/04 11:49:12;;;;;;;6.20;5.37;;;;;;;31.16;58.81;100617.83;1775539;79;21731;-54
2023/07/04 11:52:28;;;;;;;8.23;5.50;;;;;;;31.11;58.55;100608.81;1771797;80;21860;-56
2023/07/04 11:55:41;;;;;;;6.83;5.62;;;;;;;31.06;58.31;100610.89;1796954;79;21181;-60
2023/07/04 11:58:49;;;;;;;7.70;5.53;;;;;;;31.03;58.23;100606.70;1784815;79;21228;-59
2023/07/04 12:02:06;;;;;;;10.38;6.47;;;;;;;31.03;58.09;100612.92;1793203;78;21193;-55
2023/07/04 12:05:17;;;;;;;9.45;5.78;;;;;;;30.98;57.83;100611.02;1781758;79;21263;-59
2023/07/04 12:08:50;;;;;;;8.10;6.25;;;;;;;30.95;57.57;100615.02;1803510;78;21331;-57
2023/07/04 12:11:55;;;;;;;6.55;5.95;;;;;;;30.86;57.34;100617.67;1794323;79;21330;-57
2023/07/04 12:15:22;;;;;;;7.08;5.50;;;;;;;30.85;57.27;100606.10;1781978;79;21196;-59
2023/07/04 12:18:30;;;;;;;6.95;5.65;;;;;;;30.84;57.02;100608.67;1793474;79;21750;-57
2023/07/04 12:21:36;;;;;;;8.15;5.67;;;;;;;30.85;56.85;100601.86;1796775;79;21354;-54
2023/07/04 12:24:44;;;;;;;6.22;5.40;;;;;;;30.86;56.60;100609.78;1783966;79;21421;-55
2023/07/04 12:27:50;;;;;;;7.72;5.92;;;;;;;30.82;56.13;100609.54;1789864;79;21209;-58
2023/07/04 12:31:09;;;;;;;6.67;5.97;;;;;;;30.77;55.87;100607.34;1789284;79;21181;-56
2023/07/04 12:34:19;;;;;;;7.00;6.30;;;;;;;30.88;55.88;100610.30;1780781;79;21347;-57
2023/07/04 12:37:28;;;;;;;7.05;6.10;;;;;;;30.96;55.74;100611.88;1781213;79;21762;-55
2023/07/04 12:40:38;;;;;;;6.65;5.60;;;;;;;31.01;55.41;100608.98;1772497;79;21212;-57
2023/07/04 12:43:45;;;;;;;6.53;5.78;;;;;;;31.00;55.08;100610.11;1784307;78;21184;-58
2023/07/04 12:46:57;;;;;;;8.13;6.08;;;;;;;31.02;54.82;100605.56;1775012;79;21232;-55
2023/07/04 12:50:03;;;;;;;6.92;5.67;;;;;;;31.08;54.77;100604.36;1776711;79;21208;-55
2023/07/04 12:53:11;;;;;;;11.35;6.12;;;;;;;31.11;54.44;100606.58;1773069;79;21192;-60
2023/07/04 12:56:18;;;;;;;8.33;5.58;;;;;;;31.18;54.31;100606.45;1778327;79;21710;-55
2023/07/04 12:59:43;;;;;;;5.78;5.10;;;;;;;31.25;54.09;100611.73;1781256;79;21473;-57
2023/07/04 13:02:54;;;;;;;6.12;5.53;;;;;;;31.25;53.85;100611.73;1782205;79;21982;-59
2023/07/04 13:06:11;;;;;;;7.05;5.85;;;;;;;31.16;53.51;100609.34;1785113;78;21425;-58
2023/07/04 13:09:21;;;;;;;7.30;5.90;;;;;;;31.08;53.34;100596.70;1779016;79;21864;-56
2023/07/04 13:12:21;;;;;;;7.53;6.30;;;;;;;30.98;53.21;100602.53;1775774;79;21349;-57
2023/07/04 13:15:37;;;;;;;8.05;6.05;;;;;;;30.86;53.07;100601.30;1788596;78;22264;-51
2023/07/04 13:18:34;;;;;;;7.12;6.10;;;;;;;30.74;53.02;100598.02;1768502;79;21896;-56
2023/07/04 13:21:53;;;;;;;6.37;5.78;;;;;;;30.59;52.91;100599.91;1777551;79;21220;-57
2023/07/04 13:24:54;;;;;;;6.80;5.62;;;;;;;30.38;52.86;100597.06;1779611;79;21212;-57
2023/07/04 13:28:31;;;;;;;7.90;5.80;;;;;;;30.18;52.88;100591.62;1781297;78;21707;-56
2023/07/04 13:31:40;;;;;;;9.15;6.17;;;;;;;30.03;52.88;100586.13;1793108;79;21232;-56
2023/07/04 13:34:53;;;;;;;7.58;5.95;;;;;;;29.85;52.62;100588.32;1785419;79;21527;-56
2023/07/04 13:38:02;;;;;;;9.77;6.43;;;;;;;29.71;52.75;100592.98;1778422;79;21872;-56
2023/07/04 13:41:10;;;;;;;9.15;6.78;;;;;;;29.56;52.70;100584.61;1781548;79;21734;-55
2023/07/04 13:44:18;;;;;;;7.75;6.67;;;;;;;29.44;52.74;100586.98;1769054;79;21204;-57
2023/07/04 13:47:25;;;;;;;12.00;7.22;;;;;;;29.38;52.84;100585.34;1768273;80;21239;-57
2023/07/04 13:50:33;;;;;;;7.17;6.08;;;;;;;29.42;52.90;100587.84;1781947;79;21742;-57
2023/07/04 13:53:40;;;;;;;9.25;7.37;;;;;;;29.49;52.98;100582.71;1778032;79;21200;-58
2023/07/04 13:56:47;;;;;;;9.03;6.70;;;;;;;29.56;53.10;100578.96;1789749;78;21193;-51
2023/07/04 13:59:52;;;;;;;6.67;5.95;;;;;;;29.80;52.83;100577.63;1776319;78;21562;-57
2023/07/04 14:02:52;;;;;;;7.22;6.05;;;;;;;29.80;52.83;100577.63;1799768;79;21251;-59
2023/07/04 14:06:00;;;;;;;10.00;6.03;;;;;;;29.84;52.94;100576.77;1800211;79;21177;-59
2023/07/04 14:09:05;;;;;;;7.70;6.10;;;;;;;29.91;52.92;100567.36;1800116;78;22239;-52
2023/07/04 14:12:13;;;;;;;8.93;5.92;;;;;;;30.00;52.88;100571.80;1801003;79;21825;-53
2023/07/04 14:15:18;;;;;;;6.95;6.20;;;;;;;30.05;52.85;100571.16;1799690;79;21248;-54
2023/07/04 14:18:25;;;;;;;7.97;5.97;;;;;;;30.07;52.71;100578.77;1799023;79;21765;-53
2023/07/04 14:21:32;;;;;;;7.72;5.85;;;;;;;30.08;52.64;100574.78;1794278;79;21188;-54
2023/07/04 14:24:41;;;;;;;7.90;5.80;;;;;;;30.16;52.25;100568.48;1801534;79;21205;-55
2023/07/04 14:27:47;;;;;;;6.80;6.10;;;;;;;30.16;52.25;100568.48;1801927;77;21367;-54